Linden, Indiana
Current Conditions -  °F | °C
As of 12:54 AM on Thursday 27 Nov 2014 (Local Time) from KLAF Reporting Station
Overcast Overcast  
Wind Chill: 19°   Ceiling: 2100
Heat Index: 27°   Visibility: 10mi
Dew Point: 20°   Wind: 8mph
Humidity: 75%   Direction: 350°N
Pressure: 30.16"   Gusts: NA
Location:  40.19°N, 86.9°W
Report Text: KLAF 270554Z AUTO 35007KT 10SM OVC021 M03/M07 A3016 RMK AO2 SLP221 T10281067 11028 21039 51014 TSNO
Loading
Personal Weather Stations






























Interactive Weather Map New forecast layout! Learn more

10-Day Weather Forecast

Advertisements
Track Severe Weather on mobile